sensor_id;sensor_type;location;lat;lon;timestamp;P1;durP1;ratioP1;P2;durP2;ratioP2
2452;SDS011;63678;47.994;7.854;2023-07-20T00:00:33;6.57;;;3.60;;
2452;SDS011;63678;47.994;7.854;2023-07-20T00:03:12;7.53;;;3.37;;
2452;SDS011;63678;47.994;7.854;2023-07-20T00:05:51;8.45;;;3.47;;
2452;SDS011;63678;47.994;7.854;2023-07-20T00:08:23;7.15;;;3.42;;
2452;SDS011;63678;47.994;7.854;2023-07-20T00:10:56;9.90;;;3.70;;
2452;SDS011;63678;47.994;7.854;2023-07-20T00:13:28;10.05;;;4.20;;
2452;SDS011;63678;47.994;7.854;2023-07-20T00:16:00;11.77;;;3.87;;
2452;SDS011;63678;47.994;7.854;2023-07-20T00:18:33;7.85;;;3.53;;
2452;SDS011;63678;47.994;7.854;2023-07-20T00:21:05;8.95;;;3.80;;
2452;SDS011;63678;47.994;7.854;2023-07-20T00:23:37;13.07;;;3.67;;
2452;SDS011;63678;47.994;7.854;2023-07-20T00:26:10;7.18;;;3.90;;
2452;SDS011;63678;47.994;7.854;2023-07-20T00:28:43;11.77;;;4.00;;
2452;SDS011;63678;47.994;7.854;2023-07-20T00:31:15;7.82;;;3.92;;
2452;SDS011;63678;47.994;7.854;2023-07-20T00:33:47;9.18;;;3.35;;
2452;SDS011;63678;47.994;7.854;2023-07-20T00:36:20;7.68;;;3.97;;
2452;SDS011;63678;47.994;7.854;2023-07-20T00:38:53;8.30;;;3.70;;
2452;SDS011;63678;47.994;7.854;2023-07-20T00:41:26;5.97;;;3.40;;
2452;SDS011;63678;47.994;7.854;2023-07-20T00:44:01;7.22;;;3.97;;
2452;SDS011;63678;47.994;7.854;2023-07-20T00:46:33;7.53;;;3.85;;
2452;SDS011;63678;47.994;7.854;2023-07-20T00:49:05;8.48;;;3.80;;
2452;SDS011;63678;47.994;7.854;2023-07-20T00:51:38;7.75;;;3.53;;
2452;SDS011;63678;47.994;7.854;2023-07-20T00:54:12;6.40;;;3.60;;
2452;SDS011;63678;47.994;7.854;2023-07-20T00:56:44;7.65;;;3.60;;
2452;SDS011;63678;47.994;7.854;2023-07-20T00:59:17;9.55;;;3.60;;
2452;SDS011;63678;47.994;7.854;2023-07-20T01:01:50;5.90;;;3.33;;
2452;SDS011;63678;47.994;7.854;2023-07-20T01:04:22;8.82;;;4.07;;
2452;SDS011;63678;47.994;7.854;2023-07-20T01:07:03;8.37;;;3.70;;
2452;SDS011;63678;47.994;7.854;2023-07-20T01:09:48;8.25;;;3.83;;
2452;SDS011;63678;47.994;7.854;2023-07-20T01:12:33;9.65;;;3.80;;
2452;SDS011;63678;47.994;7.854;2023-07-20T01:15:14;7.70;;;4.10;;
2452;SDS011;63678;47.994;7.854;2023-07-20T01:17:46;7.20;;;3.70;;
2452;SDS011;63678;47.994;7.854;2023-07-20T01:20:20;7.30;;;3.90;;
2452;SDS011;63678;47.994;7.854;2023-07-20T01:23:00;9.27;;;3.55;;
2452;SDS011;63678;47.994;7.854;2023-07-20T01:32:27;6.88;;;3.58;;
2452;SDS011;63678;47.994;7.854;2023-07-20T01:35:01;8.03;;;3.37;;
2452;SDS011;63678;47.994;7.854;2023-07-20T01:37:34;6.63;;;3.60;;
2452;SDS011;63678;47.994;7.854;2023-07-20T01:40:08;8.15;;;3.78;;
2452;SDS011;63678;47.994;7.854;2023-07-20T01:42:48;7.30;;;3.58;;
2452;SDS011;63678;47.994;7.854;2023-07-20T01:45:20;11.88;;;4.03;;
2452;SDS011;63678;47.994;7.854;2023-07-20T01:47:53;8.77;;;3.80;;
2452;SDS011;63678;47.994;7.854;2023-07-20T01:50:25;10.60;;;3.70;;
2452;SDS011;63678;47.994;7.854;2023-07-20T01:52:57;8.10;;;3.58;;
2452;SDS011;63678;47.994;7.854;2023-07-20T01:55:30;7.78;;;3.90;;
2452;SDS011;63678;47.994;7.854;2023-07-20T01:58:02;8.20;;;3.70;;
2452;SDS011;63678;47.994;7.854;2023-07-20T02:00:36;9.80;;;3.90;;
2452;SDS011;63678;47.994;7.854;2023-07-20T02:03:09;6.75;;;3.97;;
2452;SDS011;63678;47.994;7.854;2023-07-20T02:05:43;7.20;;;3.70;;
2452;SDS011;63678;47.994;7.854;2023-07-20T02:08:15;8.93;;;3.47;;
2452;SDS011;63678;47.994;7.854;2023-07-20T02:10:50;7.15;;;4.28;;
2452;SDS011;63678;47.994;7.854;2023-07-20T02:13:24;10.20;;;4.40;;
2452;SDS011;63678;47.994;7.854;2023-07-20T02:15:56;9.40;;;3.80;;
2452;SDS011;63678;47.994;7.854;2023-07-20T02:18:29;8.98;;;3.78;;
2452;SDS011;63678;47.994;7.854;2023-07-20T02:21:01;8.68;;;4.00;;
2452;SDS011;63678;47.994;7.854;2023-07-20T02:23:33;8.13;;;3.60;;
2452;SDS011;63678;47.994;7.854;2023-07-20T02:26:06;8.57;;;4.00;;
2452;SDS011;63678;47.994;7.854;2023-07-20T02:28:38;8.32;;;3.80;;
2452;SDS011;63678;47.994;7.854;2023-07-20T02:31:11;7.13;;;4.07;;
2452;SDS011;63678;47.994;7.854;2023-07-20T02:33:43;9.80;;;3.80;;
2452;SDS011;63678;47.994;7.854;2023-07-20T02:36:16;7.32;;;3.75;;
2452;SDS011;63678;47.994;7.854;2023-07-20T02:38:49;8.53;;;4.00;;
2452;SDS011;63678;47.994;7.854;2023-07-20T02:41:22;8.20;;;3.90;;
2452;SDS011;63678;47.994;7.854;2023-07-20T02:43:54;6.38;;;3.83;;
2452;SDS011;63678;47.994;7.854;2023-07-20T02:46:28;8.98;;;4.13;;
2452;SDS011;63678;47.994;7.854;2023-07-20T02:49:02;6.55;;;3.58;;
2452;SDS011;63678;47.994;7.854;2023-07-20T02:51:34;6.90;;;4.00;;
2452;SDS011;63678;47.994;7.854;2023-07-20T02:54:07;7.68;;;3.70;;
2452;SDS011;63678;47.994;7.854;2023-07-20T02:56:40;6.15;;;3.58;;
2452;SDS011;63678;47.994;7.854;2023-07-20T02:59:33;10.15;;;3.67;;
2452;SDS011;63678;47.994;7.854;2023-07-20T03:02:06;7.97;;;3.90;;
2452;SDS011;63678;47.994;7.854;2023-07-20T03:04:41;7.20;;;3.73;;
2452;SDS011;63678;47.994;7.854;2023-07-20T03:07:13;8.65;;;3.80;;
2452;SDS011;63678;47.994;7.854;2023-07-20T03:09:47;7.63;;;3.65;;
2452;SDS011;63678;47.994;7.854;2023-07-20T03:12:20;7.57;;;3.72;;
2452;SDS011;63678;47.994;7.854;2023-07-20T03:14:53;10.60;;;3.90;;
2452;SDS011;63678;47.994;7.854;2023-07-20T03:17:26;7.77;;;3.57;;
2452;SDS011;63678;47.994;7.854;2023-07-20T03:19:59;8.30;;;3.63;;
2452;SDS011;63678;47.994;7.854;2023-07-20T03:22:33;9.32;;;3.95;;
2452;SDS011;63678;47.994;7.854;2023-07-20T03:25:05;6.10;;;3.65;;
2452;SDS011;63678;47.994;7.854;2023-07-20T03:27:38;6.55;;;3.58;;
2452;SDS011;63678;47.994;7.854;2023-07-20T03:30:11;11.50;;;4.17;;
2452;SDS011;63678;47.994;7.854;2023-07-20T03:32:44;8.82;;;3.90;;
2452;SDS011;63678;47.994;7.854;2023-07-20T03:35:16;9.05;;;4.22;;
2452;SDS011;63678;47.994;7.854;2023-07-20T03:37:49;10.55;;;3.97;;
2452;SDS011;63678;47.994;7.854;2023-07-20T03:40:55;9.45;;;4.00;;
2452;SDS011;63678;47.994;7.854;2023-07-20T03:43:30;8.30;;;4.00;;
2452;SDS011;63678;47.994;7.854;2023-07-20T03:46:02;10.55;;;4.10;;
2452;SDS011;63678;47.994;7.854;2023-07-20T03:48:39;7.47;;;4.43;;
2452;SDS011;63678;47.994;7.854;2023-07-20T03:51:11;7.88;;;3.97;;
2452;SDS011;63678;47.994;7.854;2023-07-20T03:53:43;10.68;;;4.10;;
2452;SDS011;63678;47.994;7.854;2023-07-20T03:56:16;8.77;;;3.87;;
2452;SDS011;63678;47.994;7.854;2023-07-20T03:58:48;9.77;;;3.88;;
2452;SDS011;63678;47.994;7.854;2023-07-20T04:01:22;7.28;;;4.18;;
2452;SDS011;63678;47.994;7.854;2023-07-20T04:03:54;7.88;;;4.03;;
2452;SDS011;63678;47.994;7.854;2023-07-20T04:06:27;8.27;;;4.35;;
2452;SDS011;63678;47.994;7.854;2023-07-20T04:08:59;11.10;;;4.00;;
2452;SDS011;63678;47.994;7.854;2023-07-20T04:11:34;6.50;;;4.00;;
2452;SDS011;63678;47.994;7.854;2023-07-20T04:14:07;8.25;;;4.28;;
2452;SDS011;63678;47.994;7.854;2023-07-20T04:16:39;9.38;;;4.53;;
2452;SDS011;63678;47.994;7.854;2023-07-20T04:19:12;7.57;;;4.55;;
2452;SDS011;63678;47.994;7.854;2023-07-20T04:22:06;9.30;;;3.97;;
2452;SDS011;63678;47.994;7.854;2023-07-20T04:24:39;10.00;;;3.97;;
2452;SDS011;63678;47.994;7.854;2023-07-20T04:27:12;7.57;;;4.60;;
2452;SDS011;63678;47.994;7.854;2023-07-20T04:29:48;7.75;;;4.10;;
2452;SDS011;63678;47.994;7.854;2023-07-20T04:32:20;9.75;;;4.35;;
2452;SDS011;63678;47.994;7.854;2023-07-20T04:34:53;7.50;;;4.20;;
2452;SDS011;63678;47.994;7.854;2023-07-20T04:37:25;7.40;;;4.32;;
2452;SDS011;63678;47.994;7.854;2023-07-20T04:39:58;8.43;;;4.53;;
2452;SDS011;63678;47.994;7.854;2023-07-20T04:42:30;9.18;;;4.00;;
2452;SDS011;63678;47.994;7.854;2023-07-20T04:45:02;9.38;;;4.45;;
2452;SDS011;63678;47.994;7.854;2023-07-20T04:47:36;7.07;;;4.20;;
2452;SDS011;63678;47.994;7.854;2023-07-20T04:50:09;8.82;;;3.90;;
2452;SDS011;63678;47.994;7.854;2023-07-20T04:52:41;8.45;;;4.07;;
2452;SDS011;63678;47.994;7.854;2023-07-20T04:55:19;8.38;;;4.45;;
2452;SDS011;63678;47.994;7.854;2023-07-20T04:57:53;7.32;;;3.88;;
2452;SDS011;63678;47.994;7.854;2023-07-20T05:00:27;7.17;;;4.00;;
2452;SDS011;63678;47.994;7.854;2023-07-20T05:03:00;9.63;;;4.30;;
2452;SDS011;63678;47.994;7.854;2023-07-20T05:05:32;11.60;;;4.65;;
2452;SDS011;63678;47.994;7.854;2023-07-20T05:08:05;7.97;;;4.25;;
2452;SDS011;63678;47.994;7.854;2023-07-20T05:10:38;9.00;;;4.70;;
2452;SDS011;63678;47.994;7.854;2023-07-20T05:13:10;9.67;;;4.07;;
2452;SDS011;63678;47.994;7.854;2023-07-20T05:15:42;10.73;;;3.70;;
2452;SDS011;63678;47.994;7.854;2023-07-20T05:18:18;7.40;;;4.07;;
2452;SDS011;63678;47.994;7.854;2023-07-20T05:20:53;8.68;;;4.80;;
2452;SDS011;63678;47.994;7.854;2023-07-20T05:23:26;10.07;;;4.45;;
2452;SDS011;63678;47.994;7.854;2023-07-20T05:25:59;8.87;;;4.37;;
2452;SDS011;63678;47.994;7.854;2023-07-20T05:28:31;7.75;;;4.22;;
2452;SDS011;63678;47.994;7.854;2023-07-20T05:31:04;9.30;;;4.57;;
2452;SDS011;63678;47.994;7.854;2023-07-20T05:33:37;10.20;;;5.18;;
2452;SDS011;63678;47.994;7.854;2023-07-20T05:36:10;13.50;;;5.78;;
2452;SDS011;63678;47.994;7.854;2023-07-20T05:38:42;10.90;;;4.90;;
2452;SDS011;63678;47.994;7.854;2023-07-20T05:41:15;10.55;;;5.05;;
2452;SDS011;63678;47.994;7.854;2023-07-20T05:43:48;10.15;;;5.07;;
2452;SDS011;63678;47.994;7.854;2023-07-20T05:46:20;8.75;;;4.70;;
2452;SDS011;63678;47.994;7.854;2023-07-20T05:48:53;10.90;;;4.78;;
2452;SDS011;63678;47.994;7.854;2023-07-20T05:51:25;11.13;;;4.63;;
2452;SDS011;63678;47.994;7.854;2023-07-20T05:53:59;9.57;;;4.57;;
2452;SDS011;63678;47.994;7.854;2023-07-20T05:56:31;10.05;;;4.68;;
2452;SDS011;63678;47.994;7.854;2023-07-20T05:59:04;10.88;;;4.30;;
2452;SDS011;63678;47.994;7.854;2023-07-20T06:01:36;9.35;;;4.60;;
2452;SDS011;63678;47.994;7.854;2023-07-20T06:04:08;7.93;;;4.50;;
2452;SDS011;63678;47.994;7.854;2023-07-20T06:06:41;9.95;;;4.57;;
2452;SDS011;63678;47.994;7.854;2023-07-20T06:09:13;9.77;;;4.70;;
2452;SDS011;63678;47.994;7.854;2023-07-20T06:11:46;11.25;;;5.05;;
2452;SDS011;63678;47.994;7.854;2023-07-20T06:14:18;11.80;;;4.90;;
2452;SDS011;63678;47.994;7.854;2023-07-20T06:16:51;10.77;;;4.57;;
2452;SDS011;63678;47.994;7.854;2023-07-20T06:19:24;9.50;;;4.82;;
2452;SDS011;63678;47.994;7.854;2023-07-20T06:21:56;12.63;;;5.15;;
2452;SDS011;63678;47.994;7.854;2023-07-20T06:24:28;10.70;;;4.75;;
2452;SDS011;63678;47.994;7.854;2023-07-20T06:27:00;9.88;;;4.65;;
2452;SDS011;63678;47.994;7.854;2023-07-20T06:29:33;14.20;;;4.47;;
2452;SDS011;63678;47.994;7.854;2023-07-20T06:32:05;9.20;;;4.40;;
2452;SDS011;63678;47.994;7.854;2023-07-20T06:34:39;10.15;;;4.50;;
2452;SDS011;63678;47.994;7.854;2023-07-20T06:37:11;11.05;;;4.50;;
2452;SDS011;63678;47.994;7.854;2023-07-20T06:39:43;13.20;;;4.95;;
2452;SDS011;63678;47.994;7.854;2023-07-20T06:42:19;9.37;;;4.80;;
2452;SDS011;63678;47.994;7.854;2023-07-20T06:44:51;13.45;;;4.13;;
2452;SDS011;63678;47.994;7.854;2023-07-20T06:47:23;12.77;;;4.68;;
2452;SDS011;63678;47.994;7.854;2023-07-20T06:49:56;12.73;;;3.72;;
2452;SDS011;63678;47.994;7.854;2023-07-20T06:52:28;10.05;;;3.70;;
2452;SDS011;63678;47.994;7.854;2023-07-20T06:55:01;8.27;;;3.80;;
2452;SDS011;63678;47.994;7.854;2023-07-20T06:57:36;10.68;;;4.40;;
2452;SDS011;63678;47.994;7.854;2023-07-20T07:00:09;7.97;;;4.10;;
2452;SDS011;63678;47.994;7.854;2023-07-20T07:02:43;9.65;;;4.10;;
2452;SDS011;63678;47.994;7.854;2023-07-20T07:05:18;10.77;;;3.70;;
2452;SDS011;63678;47.994;7.854;2023-07-20T07:07:52;11.23;;;4.10;;
2452;SDS011;63678;47.994;7.854;2023-07-20T07:10:25;8.32;;;3.85;;
2452;SDS011;63678;47.994;7.854;2023-07-20T07:12:56;7.70;;;4.10;;
2452;SDS011;63678;47.994;7.854;2023-07-20T07:15:29;9.35;;;3.78;;
2452;SDS011;63678;47.994;7.854;2023-07-20T07:18:02;10.02;;;4.38;;
2452;SDS011;63678;47.994;7.854;2023-07-20T07:20:36;10.03;;;4.30;;
2452;SDS011;63678;47.994;7.854;2023-07-20T07:23:09;15.88;;;5.20;;
2452;SDS011;63678;47.994;7.854;2023-07-20T07:25:42;9.63;;;4.47;;
2452;SDS011;63678;47.994;7.854;2023-07-20T07:28:14;9.82;;;4.53;;
2452;SDS011;63678;47.994;7.854;2023-07-20T07:30:47;7.88;;;4.22;;
2452;SDS011;63678;47.994;7.854;2023-07-20T07:33:20;8.20;;;3.80;;
2452;SDS011;63678;47.994;7.854;2023-07-20T07:35:54;9.27;;;3.88;;
2452;SDS011;63678;47.994;7.854;2023-07-20T07:38:32;7.28;;;4.20;;
2452;SDS011;63678;47.994;7.854;2023-07-20T07:41:25;11.88;;;4.38;;
2452;SDS011;63678;47.994;7.854;2023-07-20T07:43:57;7.30;;;4.03;;
2452;SDS011;63678;47.994;7.854;2023-07-20T07:46:30;8.83;;;3.73;;
2452;SDS011;63678;47.994;7.854;2023-07-20T07:49:02;9.38;;;3.50;;
2452;SDS011;63678;47.994;7.854;2023-07-20T07:51:35;7.15;;;3.63;;
2452;SDS011;63678;47.994;7.854;2023-07-20T07:54:08;7.00;;;3.90;;
2452;SDS011;63678;47.994;7.854;2023-07-20T07:56:43;7.05;;;4.35;;
2452;SDS011;63678;47.994;7.854;2023-07-20T07:59:16;11.87;;;3.93;;
2452;SDS011;63678;47.994;7.854;2023-07-20T08:01:49;8.25;;;3.97;;
2452;SDS011;63678;47.994;7.854;2023-07-20T08:04:21;9.25;;;4.15;;
2452;SDS011;63678;47.994;7.854;2023-07-20T08:06:54;9.60;;;3.92;;
2452;SDS011;63678;47.994;7.854;2023-07-20T08:09:26;6.63;;;3.45;;
2452;SDS011;63678;47.994;7.854;2023-07-20T08:11:58;9.67;;;3.80;;
2452;SDS011;63678;47.994;7.854;2023-07-20T08:14:32;8.68;;;3.70;;
2452;SDS011;63678;47.994;7.854;2023-07-20T08:17:04;10.15;;;3.63;;
2452;SDS011;63678;47.994;7.854;2023-07-20T08:19:40;7.63;;;3.90;;
2452;SDS011;63678;47.994;7.854;2023-07-20T08:22:13;7.60;;;4.03;;
2452;SDS011;63678;47.994;7.854;2023-07-20T08:24:47;8.77;;;4.20;;
2452;SDS011;63678;47.994;7.854;2023-07-20T08:27:24;12.25;;;3.58;;
2452;SDS011;63678;47.994;7.854;2023-07-20T08:30:20;17.95;;;4.32;;
2452;SDS011;63678;47.994;7.854;2023-07-20T08:32:55;16.40;;;4.50;;
2452;SDS011;63678;47.994;7.854;2023-07-20T08:35:28;7.72;;;3.70;;
2452;SDS011;63678;47.994;7.854;2023-07-20T08:38:00;7.97;;;3.37;;
2452;SDS011;63678;47.994;7.854;2023-07-20T08:40:39;7.45;;;3.47;;
2452;SDS011;63678;47.994;7.854;2023-07-20T08:43:17;7.20;;;3.63;;
2452;SDS011;63678;47.994;7.854;2023-07-20T08:45:50;8.63;;;4.03;;
2452;SDS011;63678;47.994;7.854;2023-07-20T08:48:26;6.68;;;3.58;;
2452;SDS011;63678;47.994;7.854;2023-07-20T08:51:00;7.73;;;3.63;;
2452;SDS011;63678;47.994;7.854;2023-07-20T08:53:35;5.53;;;3.08;;
2452;SDS011;63678;47.994;7.854;2023-07-20T08:56:07;8.30;;;3.30;;
2452;SDS011;63678;47.994;7.854;2023-07-20T08:58:43;8.38;;;3.08;;
2452;SDS011;63678;47.994;7.854;2023-07-20T09:01:15;6.47;;;2.90;;
2452;SDS011;63678;47.994;7.854;2023-07-20T09:03:50;7.33;;;3.53;;
2452;SDS011;63678;47.994;7.854;2023-07-20T09:06:22;6.80;;;3.10;;
2452;SDS011;63678;47.994;7.854;2023-07-20T09:08:55;9.20;;;4.18;;
2452;SDS011;63678;47.994;7.854;2023-07-20T09:11:28;7.90;;;3.50;;
2452;SDS011;63678;47.994;7.854;2023-07-20T09:14:04;7.03;;;3.30;;
2452;SDS011;63678;47.994;7.854;2023-07-20T09:19:26;6.20;;;3.00;;
2452;SDS011;63678;47.994;7.854;2023-07-20T09:21:59;14.25;;;3.60;;
2452;SDS011;63678;47.994;7.854;2023-07-20T09:24:31;7.85;;;3.13;;
2452;SDS011;63678;47.994;7.854;2023-07-20T09:27:21;6.82;;;3.38;;
2452;SDS011;63678;47.994;7.854;2023-07-20T09:29:54;7.63;;;2.90;;
2452;SDS011;63678;47.994;7.854;2023-07-20T09:32:28;6.82;;;3.28;;
2452;SDS011;63678;47.994;7.854;2023-07-20T09:35:04;5.93;;;2.92;;
2452;SDS011;63678;47.994;7.854;2023-07-20T09:37:47;5.63;;;2.83;;
2452;SDS011;63678;47.994;7.854;2023-07-20T09:40:36;7.72;;;3.10;;
2452;SDS011;63678;47.994;7.854;2023-07-20T09:43:15;6.47;;;2.80;;
2452;SDS011;63678;47.994;7.854;2023-07-20T09:45:50;7.95;;;2.95;;
2452;SDS011;63678;47.994;7.854;2023-07-20T09:48:29;5.72;;;3.00;;
2452;SDS011;63678;47.994;7.854;2023-07-20T09:51:05;9.65;;;3.13;;
2452;SDS011;63678;47.994;7.854;2023-07-20T09:53:39;5.25;;;2.78;;
2452;SDS011;63678;47.994;7.854;2023-07-20T09:56:11;8.27;;;2.73;;
2452;SDS011;63678;47.994;7.854;2023-07-20T09:58:48;7.45;;;2.90;;
2452;SDS011;63678;47.994;7.854;2023-07-20T10:01:23;8.35;;;3.35;;
2452;SDS011;63678;47.994;7.854;2023-07-20T10:03:59;6.10;;;2.78;;
2452;SDS011;63678;47.994;7.854;2023-07-20T10:06:34;5.43;;;2.88;;
2452;SDS011;63678;47.994;7.854;2023-07-20T10:09:10;7.20;;;3.20;;
2452;SDS011;63678;47.994;7.854;2023-07-20T10:11:46;7.80;;;2.80;;
2452;SDS011;63678;47.994;7.854;2023-07-20T10:14:44;9.57;;;3.00;;
2452;SDS011;63678;47.994;7.854;2023-07-20T10:17:33;8.07;;;3.30;;
2452;SDS011;63678;47.994;7.854;2023-07-20T10:20:07;7.60;;;3.30;;
2452;SDS011;63678;47.994;7.854;2023-07-20T10:22:42;7.60;;;3.30;;
2452;SDS011;63678;47.994;7.854;2023-07-20T10:25:19;6.65;;;2.90;;
2452;SDS011;63678;47.994;7.854;2023-07-20T10:27:56;6.15;;;2.90;;
2452;SDS011;63678;47.994;7.854;2023-07-20T10:30:30;8.55;;;3.58;;
2452;SDS011;63678;47.994;7.854;2023-07-20T10:33:04;7.78;;;2.95;;
2452;SDS011;63678;47.994;7.854;2023-07-20T10:38:39;6.72;;;3.08;;
2452;SDS011;63678;47.994;7.854;2023-07-20T10:41:34;7.10;;;2.83;;
2452;SDS011;63678;47.994;7.854;2023-07-20T10:44:09;4.95;;;2.60;;
2452;SDS011;63678;47.994;7.854;2023-07-20T10:46:43;6.63;;;2.88;;
2452;SDS011;63678;47.994;7.854;2023-07-20T10:49:17;8.70;;;3.47;;
2452;SDS011;63678;47.994;7.854;2023-07-20T10:51:56;9.20;;;3.13;;
2452;SDS011;63678;47.994;7.854;2023-07-20T10:54:34;5.70;;;2.85;;
2452;SDS011;63678;47.994;7.854;2023-07-20T10:57:29;6.55;;;2.85;;
2452;SDS011;63678;47.994;7.854;2023-07-20T11:00:08;5.68;;;2.83;;
2452;SDS011;63678;47.994;7.854;2023-07-20T11:02:46;5.77;;;2.90;;
2452;SDS011;63678;47.994;7.854;2023-07-20T11:05:35;7.25;;;2.80;;
2452;SDS011;63678;47.994;7.854;2023-07-20T11:08:11;5.57;;;2.83;;
2452;SDS011;63678;47.994;7.854;2023-07-20T11:16:36;5.20;;;2.57;;
2452;SDS011;63678;47.994;7.854;2023-07-20T11:21:53;8.88;;;3.15;;
2452;SDS011;63678;47.994;7.854;2023-07-20T11:24:36;6.20;;;3.30;;
2452;SDS011;63678;47.994;7.854;2023-07-20T11:27:12;10.88;;;4.25;;
2452;SDS011;63678;47.994;7.854;2023-07-20T11:29:45;6.00;;;3.07;;
2452;SDS011;63678;47.994;7.854;2023-07-20T11:32:47;9.80;;;3.08;;
2452;SDS011;63678;47.994;7.854;2023-07-20T11:35:20;5.53;;;2.85;;
2452;SDS011;63678;47.994;7.854;2023-07-20T11:37:52;6.53;;;3.00;;
2452;SDS011;63678;47.994;7.854;2023-07-20T11:40:45;8.20;;;3.33;;
2452;SDS011;63678;47.994;7.854;2023-07-20T11:43:40;6.20;;;3.43;;
2452;SDS011;63678;47.994;7.854;2023-07-20T11:46:13;8.13;;;3.10;;
2452;SDS011;63678;47.994;7.854;2023-07-20T11:48:48;6.05;;;3.00;;
2452;SDS011;63678;47.994;7.854;2023-07-20T11:51:21;7.93;;;3.00;;
2452;SDS011;63678;47.994;7.854;2023-07-20T11:53:55;9.43;;;3.10;;
2452;SDS011;63678;47.994;7.854;2023-07-20T11:56:28;5.77;;;3.00;;
2452;SDS011;63678;47.994;7.854;2023-07-20T11:59:01;5.75;;;2.85;;
2452;SDS011;63678;47.994;7.854;2023-07-20T12:01:34;8.10;;;2.88;;
2452;SDS011;63678;47.994;7.854;2023-07-20T12:04:07;8.45;;;3.22;;
2452;SDS011;63678;47.994;7.854;2023-07-20T12:06:39;6.38;;;3.60;;
2452;SDS011;63678;47.994;7.854;2023-07-20T12:09:16;6.67;;;2.90;;
2452;SDS011;63678;47.994;7.854;2023-07-20T12:11:49;5.70;;;3.10;;
2452;SDS011;63678;47.994;7.854;2023-07-20T12:14:25;7.93;;;3.28;;
2452;SDS011;63678;47.994;7.854;2023-07-20T12:16:57;6.18;;;2.90;;
2452;SDS011;63678;47.994;7.854;2023-07-20T12:19:30;5.28;;;2.80;;
2452;SDS011;63678;47.994;7.854;2023-07-20T12:22:05;12.43;;;3.20;;
2452;SDS011;63678;47.994;7.854;2023-07-20T12:24:38;5.28;;;2.70;;
2452;SDS011;63678;47.994;7.854;2023-07-20T12:27:13;9.10;;;3.20;;
2452;SDS011;63678;47.994;7.854;2023-07-20T12:29:50;6.78;;;3.47;;
2452;SDS011;63678;47.994;7.854;2023-07-20T12:32:22;7.07;;;3.28;;
2452;SDS011;63678;47.994;7.854;2023-07-20T12:34:55;6.27;;;2.90;;
2452;SDS011;63678;47.994;7.854;2023-07-20T12:37:27;6.57;;;2.97;;
2452;SDS011;63678;47.994;7.854;2023-07-20T12:40:00;9.63;;;2.90;;
2452;SDS011;63678;47.994;7.854;2023-07-20T12:42:32;6.20;;;2.70;;
2452;SDS011;63678;47.994;7.854;2023-07-20T12:45:05;6.30;;;2.90;;
2452;SDS011;63678;47.994;7.854;2023-07-20T12:47:38;5.20;;;2.47;;
2452;SDS011;63678;47.994;7.854;2023-07-20T12:50:10;5.43;;;2.90;;
2452;SDS011;63678;47.994;7.854;2023-07-20T12:52:43;8.07;;;3.30;;
2452;SDS011;63678;47.994;7.854;2023-07-20T12:55:16;6.35;;;2.70;;
2452;SDS011;63678;47.994;7.854;2023-07-20T12:57:48;7.15;;;3.17;;
2452;SDS011;63678;47.994;7.854;2023-07-20T13:00:21;7.43;;;3.03;;
2452;SDS011;63678;47.994;7.854;2023-07-20T13:02:54;7.43;;;2.92;;
2452;SDS011;63678;47.994;7.854;2023-07-20T13:05:30;6.85;;;2.63;;
2452;SDS011;63678;47.994;7.854;2023-07-20T13:08:09;6.82;;;2.95;;
2452;SDS011;63678;47.994;7.854;2023-07-20T13:10:45;5.85;;;2.83;;
2452;SDS011;63678;47.994;7.854;2023-07-20T13:13:19;7.63;;;3.00;;
2452;SDS011;63678;47.994;7.854;2023-07-20T13:15:51;8.18;;;3.22;;
2452;SDS011;63678;47.994;7.854;2023-07-20T13:18:27;5.95;;;3.00;;
2452;SDS011;63678;47.994;7.854;2023-07-20T13:20:59;6.85;;;3.20;;
2452;SDS011;63678;47.994;7.854;2023-07-20T13:23:33;5.35;;;3.20;;
2452;SDS011;63678;47.994;7.854;2023-07-20T13:26:06;6.90;;;2.80;;
2452;SDS011;63678;47.994;7.854;2023-07-20T13:28:40;6.85;;;3.25;;
2452;SDS011;63678;47.994;7.854;2023-07-20T13:31:13;6.55;;;3.22;;
2452;SDS011;63678;47.994;7.854;2023-07-20T13:33:46;5.97;;;2.92;;
2452;SDS011;63678;47.994;7.854;2023-07-20T13:36:28;6.07;;;2.72;;
2452;SDS011;63678;47.994;7.854;2023-07-20T13:39:01;7.63;;;3.07;;
2452;SDS011;63678;47.994;7.854;2023-07-20T13:41:36;6.75;;;2.70;;
2452;SDS011;63678;47.994;7.854;2023-07-20T13:44:08;5.82;;;2.88;;
2452;SDS011;63678;47.994;7.854;2023-07-20T13:46:40;7.10;;;2.88;;
2452;SDS011;63678;47.994;7.854;2023-07-20T13:49:15;6.50;;;4.00;;
2452;SDS011;63678;47.994;7.854;2023-07-20T13:51:54;6.30;;;3.10;;
2452;SDS011;63678;47.994;7.854;2023-07-20T13:54:31;5.60;;;3.08;;
2452;SDS011;63678;47.994;7.854;2023-07-20T13:57:03;7.28;;;3.60;;
2452;SDS011;63678;47.994;7.854;2023-07-20T13:59:36;6.85;;;3.05;;
2452;SDS011;63678;47.994;7.854;2023-07-20T14:02:09;5.95;;;3.00;;
2452;SDS011;63678;47.994;7.854;2023-07-20T14:04:45;6.83;;;3.17;;
2452;SDS011;63678;47.994;7.854;2023-07-20T14:07:17;5.82;;;3.15;;
2452;SDS011;63678;47.994;7.854;2023-07-20T14:09:52;9.52;;;2.60;;
2452;SDS011;63678;47.994;7.854;2023-07-20T14:12:27;5.63;;;2.67;;
2452;SDS011;63678;47.994;7.854;2023-07-20T14:15:00;6.28;;;2.88;;
2452;SDS011;63678;47.994;7.854;2023-07-20T14:17:34;7.10;;;3.00;;
2452;SDS011;63678;47.994;7.854;2023-07-20T14:20:09;7.65;;;2.90;;
2452;SDS011;63678;47.994;7.854;2023-07-20T14:22:45;8.70;;;3.30;;
2452;SDS011;63678;47.994;7.854;2023-07-20T14:25:22;6.40;;;3.25;;
2452;SDS011;63678;47.994;7.854;2023-07-20T14:27:54;5.43;;;2.72;;
2452;SDS011;63678;47.994;7.854;2023-07-20T14:30:27;5.57;;;2.83;;
2452;SDS011;63678;47.994;7.854;2023-07-20T14:32:59;6.88;;;2.88;;
2452;SDS011;63678;47.994;7.854;2023-07-20T14:35:32;5.97;;;3.10;;
2452;SDS011;63678;47.994;7.854;2023-07-20T14:38:05;5.93;;;2.65;;
2452;SDS011;63678;47.994;7.854;2023-07-20T14:40:38;5.22;;;2.85;;
2452;SDS011;63678;47.994;7.854;2023-07-20T14:43:10;5.30;;;3.00;;
2452;SDS011;63678;47.994;7.854;2023-07-20T14:45:42;7.22;;;2.72;;
2452;SDS011;63678;47.994;7.854;2023-07-20T14:48:15;6.30;;;3.08;;
2452;SDS011;63678;47.994;7.854;2023-07-20T14:50:48;8.75;;;3.22;;
2452;SDS011;63678;47.994;7.854;2023-07-20T14:53:20;5.63;;;2.90;;
2452;SDS011;63678;47.994;7.854;2023-07-20T14:55:57;7.53;;;2.87;;
2452;SDS011;63678;47.994;7.854;2023-07-20T14:58:32;6.63;;;3.03;;
2452;SDS011;63678;47.994;7.854;2023-07-20T15:01:06;5.65;;;2.80;;
2452;SDS011;63678;47.994;7.854;2023-07-20T15:03:40;10.35;;;3.03;;
2452;SDS011;63678;47.994;7.854;2023-07-20T15:06:12;5.72;;;3.15;;
2452;SDS011;63678;47.994;7.854;2023-07-20T15:08:45;5.87;;;2.73;;
2452;SDS011;63678;47.994;7.854;2023-07-20T15:11:18;10.30;;;3.17;;
2452;SDS011;63678;47.994;7.854;2023-07-20T15:13:51;8.85;;;3.42;;
2452;SDS011;63678;47.994;7.854;2023-07-20T15:16:23;6.22;;;2.70;;
2452;SDS011;63678;47.994;7.854;2023-07-20T15:18:56;5.22;;;2.88;;
2452;SDS011;63678;47.994;7.854;2023-07-20T15:21:31;6.97;;;2.80;;
2452;SDS011;63678;47.994;7.854;2023-07-20T15:24:05;5.63;;;2.88;;
2452;SDS011;63678;47.994;7.854;2023-07-20T15:26:37;11.18;;;3.10;;
2452;SDS011;63678;47.994;7.854;2023-07-20T15:29:10;7.13;;;3.08;;
2452;SDS011;63678;47.994;7.854;2023-07-20T15:31:46;6.93;;;2.90;;
2452;SDS011;63678;47.994;7.854;2023-07-20T15:34:23;8.10;;;3.27;;
2452;SDS011;63678;47.994;7.854;2023-07-20T15:36:55;6.03;;;3.50;;
2452;SDS011;63678;47.994;7.854;2023-07-20T15:39:27;10.70;;;3.60;;
2452;SDS011;63678;47.994;7.854;2023-07-20T15:42:00;5.30;;;3.03;;
2452;SDS011;63678;47.994;7.854;2023-07-20T15:44:53;9.57;;;3.03;;
2452;SDS011;63678;47.994;7.854;2023-07-20T15:47:26;4.77;;;2.93;;
2452;SDS011;63678;47.994;7.854;2023-07-20T15:49:58;8.82;;;2.53;;
2452;SDS011;63678;47.994;7.854;2023-07-20T15:52:32;10.85;;;3.72;;
2452;SDS011;63678;47.994;7.854;2023-07-20T15:55:06;5.50;;;2.80;;
2452;SDS011;63678;47.994;7.854;2023-07-20T15:57:39;6.65;;;3.10;;
2452;SDS011;63678;47.994;7.854;2023-07-20T16:00:11;7.53;;;3.17;;
2452;SDS011;63678;47.994;7.854;2023-07-20T16:02:44;8.10;;;3.00;;
2452;SDS011;63678;47.994;7.854;2023-07-20T16:05:18;5.07;;;2.90;;